Time;durP1;ratioP1;P1;durP2;ratioP2;P2;SDS_P1;SDS_P2;PMS_P1;PMS_P2;Temp;Humidity;BMP_temperature;BMP_pressure;BME280_temperature;BME280_humidity;BME280_pressure;Samples;Min_cycle;Max_cycle;Signal;HPM_P1;HPM_P2
2022/11/19 05:30:19;;;;;;;5.78;3.33;;;6.60;78.90;;;;;;5924045;23;20033;-76
2022/11/19 05:32:46;;;;;;;4.00;2.78;;;6.50;78.20;;;;;;4964244;28;20036;-76
2022/11/19 05:35:12;;;;;;;5.00;3.60;;;6.50;78.90;;;;;;4975766;28;20034;-76
2022/11/19 05:37:37;;;;;;;3.75;3.38;;;6.50;78.40;;;;;;4975796;28;20022;-76
2022/11/19 05:40:03;;;;;;;4.97;3.20;;;6.40;78.40;;;;;;4972971;28;20039;-76
2022/11/19 05:42:29;;;;;;;3.03;2.70;;;6.40;78.60;;;;;;4956815;29;20019;-76
2022/11/19 05:44:54;;;;;;;5.95;3.20;;;6.50;79.00;;;;;;4956535;28;20203;-76
2022/11/19 05:47:20;;;;;;;14.27;3.10;;;6.40;78.90;;;;;;4971493;28;20027;-75
2022/11/19 05:49:46;;;;;;;2.25;2.05;;;6.40;78.90;;;;;;4970242;28;20038;-76
2022/11/19 05:52:11;;;;;;;3.65;2.78;;;6.40;78.80;;;;;;4960344;28;20027;-75
2022/11/19 05:54:37;;;;;;;3.58;3.22;;;6.40;78.80;;;;;;4975633;28;20037;-75
2022/11/19 05:57:04;;;;;;;3.63;2.80;;;6.40;79.10;;;;;;4973820;28;20510;-76
2022/11/19 05:59:30;;;;;;;3.10;2.67;;;6.40;79.10;;;;;;4955109;29;20043;-75
2022/11/19 06:01:55;;;;;;;4.00;2.72;;;6.40;78.90;;;;;;4956412;28;20112;-76
2022/11/19 06:04:21;;;;;;;2.85;2.63;;;6.30;78.90;;;;;;4972564;28;20058;-75
2022/11/19 06:06:47;;;;;;;3.67;2.65;;;6.40;79.10;;;;;;4962602;28;20447;-75
2022/11/19 06:09:12;;;;;;;5.38;2.75;;;6.40;79.10;;;;;;4974926;28;20388;-76
2022/11/19 06:11:47;;;;;;;6.15;2.72;;;6.40;79.00;;;;;;4976332;28;20027;-76
2022/11/19 06:14:24;;;;;;;3.83;2.30;;;6.50;79.00;;;;;;4970691;28;20075;-76
2022/11/19 06:16:58;;;;;;;3.83;3.22;;;6.40;78.80;;;;;;4957976;28;20031;-75
2022/11/19 06:19:24;;;;;;;2.85;2.38;;;6.40;78.80;;;;;;4964207;28;20089;-75
2022/11/19 06:21:50;;;;;;;2.63;2.15;;;6.30;79.00;;;;;;4978408;28;20023;-75
2022/11/19 06:24:16;;;;;;;4.05;2.75;;;6.30;78.90;;;;;;4961085;28;20106;-76
2022/11/19 06:26:42;;;;;;;3.83;2.97;;;6.30;79.10;;;;;;4975113;28;20066;-76
2022/11/19 06:29:09;;;;;;;2.92;2.63;;;6.30;78.80;;;;;;4960213;28;20027;-76
2022/11/19 06:31:35;;;;;;;3.85;2.45;;;6.20;78.80;;;;;;4958764;28;20475;-76
2022/11/19 06:34:01;;;;;;;3.50;2.83;;;6.20;78.90;;;;;;4960202;29;20023;-76
2022/11/19 06:36:26;;;;;;;5.10;2.83;;;6.20;79.00;;;;;;4963787;28;20106;-76
2022/11/19 06:38:52;;;;;;;8.07;3.25;;;6.20;78.80;;;;;;4977920;28;20121;-76
2022/11/19 06:41:18;;;;;;;4.50;3.92;;;6.10;78.80;;;;;;4978043;28;20038;-75
2022/11/19 06:43:44;;;;;;;8.02;5.50;;;6.10;78.90;;;;;;4978843;28;20035;-75
2022/11/19 06:46:11;;;;;;;6.38;4.85;;;6.10;78.70;;;;;;4960405;28;20038;-77
2022/11/19 06:48:37;;;;;;;8.35;5.55;;;6.10;78.90;;;;;;4958188;28;20027;-74
2022/11/19 06:51:04;;;;;;;8.30;5.88;;;6.10;79.20;;;;;;4959985;28;20027;-79
2022/11/19 06:53:29;;;;;;;12.35;6.43;;;6.20;78.90;;;;;;4958376;28;20103;-80
2022/11/19 06:56:00;;;;;;;4.88;4.28;;;6.10;78.90;;;;;;4974867;28;20474;-83
2022/11/19 06:58:27;;;;;;;6.97;4.90;;;6.20;79.20;;;;;;4970657;28;20078;-77
2022/11/19 07:00:53;;;;;;;8.32;5.30;;;6.20;79.30;;;;;;4973479;28;20035;-79
2022/11/19 07:03:18;;;;;;;12.60;5.68;;;6.30;79.10;;;;;;4959285;28;20027;-82
2022/11/19 07:05:46;;;;;;;8.60;4.18;;;6.30;79.00;;;;;;4964555;28;20039;-79
2022/11/19 07:08:12;;;;;;;8.30;5.28;;;6.30;78.90;;;;;;4978862;28;20113;-89
2022/11/19 07:10:38;;;;;;;9.35;5.55;;;6.40;79.10;;;;;;4977495;28;20074;-84
2022/11/19 07:13:03;;;;;;;7.95;5.68;;;6.40;79.10;;;;;;4975746;28;20035;-83
2022/11/19 07:15:29;;;;;;;8.48;5.68;;;6.40;79.10;;;;;;4971216;28;20031;-83
2022/11/19 07:17:55;;;;;;;8.60;5.35;;;6.40;79.00;;;;;;4977965;28;20042;-82
2022/11/19 07:20:21;;;;;;;10.57;4.15;;;6.40;78.70;;;;;;4978196;28;20027;-88
2022/11/19 07:22:47;;;;;;;6.18;4.03;;;6.30;78.60;;;;;;4973658;28;20107;-81
2022/11/19 07:25:12;;;;;;;5.63;3.83;;;6.30;79.00;;;;;;4961006;28;20118;-85
2022/11/19 07:27:39;;;;;;;5.82;4.30;;;6.30;78.60;;;;;;4978964;28;20436;-85
2022/11/19 07:30:06;;;;;;;6.18;4.18;;;6.30;79.10;;;;;;4979525;28;20054;-83
2022/11/19 07:32:33;;;;;;;3.47;3.00;;;6.30;79.50;;;;;;4974729;28;20062;-86
2022/11/19 07:34:59;;;;;;;7.97;3.28;;;6.30;79.40;;;;;;4957689;29;20035;-85
2022/11/19 07:37:24;;;;;;;4.15;3.47;;;6.40;79.80;;;;;;4959794;28;20094;-83
2022/11/19 07:39:50;;;;;;;6.40;2.92;;;6.40;79.60;;;;;;4960486;28;20042;-87
2022/11/19 07:45:01;;;;;;;4.15;2.83;;;6.40;79.90;;;;;;4987584;28;20469;-88
2022/11/19 07:47:28;;;;;;;3.90;2.53;;;6.50;79.80;;;;;;4987692;28;20027;-87
2022/11/19 07:49:53;;;;;;;2.58;2.38;;;6.60;79.80;;;;;;4986048;28;20104;-88
2022/11/19 07:52:20;;;;;;;2.83;2.50;;;6.60;79.90;;;;;;4972217;28;20047;-88
2022/11/19 07:54:45;;;;;;;6.15;3.35;;;6.60;79.70;;;;;;4973662;28;20070;-87
2022/11/19 07:57:11;;;;;;;3.67;3.13;;;6.70;79.60;;;;;;4970818;28;20039;-86
2022/11/19 07:59:37;;;;;;;3.72;2.83;;;6.70;79.60;;;;;;4976314;28;20023;-87
2022/11/19 08:02:02;;;;;;;4.28;2.78;;;6.70;79.60;;;;;;4974349;28;20027;-84
2022/11/19 08:04:28;;;;;;;2.90;2.70;;;6.60;79.80;;;;;;4971449;28;20027;-86
2022/11/19 08:06:54;;;;;;;5.43;2.72;;;6.60;79.50;;;;;;4975376;28;20030;-86
2022/11/19 08:09:19;;;;;;;6.90;3.10;;;6.60;79.90;;;;;;4974836;28;20026;-87
2022/11/19 08:11:45;;;;;;;2.42;2.13;;;6.60;80.00;;;;;;4971405;28;20043;-87
2022/11/19 08:14:12;;;;;;;2.70;2.33;;;6.60;80.30;;;;;;4975921;28;20015;-89
2022/11/19 08:19:22;;;;;;;3.58;3.13;;;6.70;79.70;;;;;;4974956;28;20845;-87
2022/11/19 08:21:48;;;;;;;3.58;2.85;;;6.70;79.90;;;;;;4963890;28;20114;-87
2022/11/19 08:24:16;;;;;;;4.32;2.78;;;6.70;80.20;;;;;;4975287;28;20019;-87
2022/11/19 08:26:42;;;;;;;4.18;2.90;;;6.80;80.40;;;;;;4976186;28;20049;-84
2022/11/19 08:29:08;;;;;;;4.40;3.05;;;6.80;80.70;;;;;;4966952;28;20090;-87
2022/11/19 08:31:34;;;;;;;7.47;3.85;;;6.80;80.60;;;;;;4967447;28;20075;-88
2022/11/19 08:34:01;;;;;;;5.80;3.72;;;6.90;80.60;;;;;;4957492;29;20027;-86
2022/11/19 08:36:27;;;;;;;4.25;3.70;;;6.90;80.40;;;;;;4964682;28;20078;-83
2022/11/19 08:38:57;;;;;;;5.90;3.45;;;6.90;80.30;;;;;;4976765;28;20115;-84
2022/11/19 08:44:07;;;;;;;8.35;3.17;;;7.10;80.30;;;;;;4958080;28;20042;-89
2022/11/19 08:46:32;;;;;;;6.13;3.83;;;7.00;80.30;;;;;;4976109;28;20660;-87
2022/11/19 08:48:58;;;;;;;6.00;4.10;;;7.00;80.40;;;;;;4975333;28;20039;-87
2022/11/19 08:51:23;;;;;;;5.07;3.10;;;7.10;80.10;;;;;;4973398;28;20038;-88
2022/11/19 08:53:52;;;;;;;2.88;2.67;;;7.10;80.60;;;;;;4968686;28;20093;-90
2022/11/19 08:56:19;;;;;;;3.25;2.65;;;7.10;80.60;;;;;;4971116;28;20050;-86
2022/11/19 08:58:45;;;;;;;10.60;3.38;;;7.20;80.80;;;;;;4960043;28;20086;-86
2022/11/19 09:01:12;;;;;;;3.65;3.22;;;7.20;81.00;;;;;;4959234;28;20026;-82
2022/11/19 09:03:38;;;;;;;5.85;2.75;;;7.20;80.80;;;;;;4975478;28;20030;-85
2022/11/19 09:06:04;;;;;;;3.97;2.35;;;7.30;80.70;;;;;;4965322;28;20541;-86
2022/11/19 09:08:30;;;;;;;4.30;3.20;;;7.30;81.10;;;;;;4977630;28;20019;-87
2022/11/19 09:10:56;;;;;;;6.47;2.97;;;7.30;80.90;;;;;;4969009;28;20065;-85
2022/11/19 09:13:21;;;;;;;4.78;2.97;;;7.40;81.00;;;;;;4957741;29;20031;-85
2022/11/19 09:15:48;;;;;;;6.90;3.38;;;7.40;81.20;;;;;;4957648;29;20483;-84
2022/11/19 09:18:13;;;;;;;6.13;4.07;;;7.50;81.00;;;;;;4957374;28;20027;-79
2022/11/19 09:20:39;;;;;;;3.95;3.65;;;7.60;80.90;;;;;;4972920;28;20829;-89
2022/11/19 09:23:05;;;;;;;8.52;4.10;;;7.60;81.00;;;;;;4975114;28;20030;-86
2022/11/19 09:25:32;;;;;;;4.38;3.05;;;7.70;81.00;;;;;;4975312;28;20495;-85
2022/11/19 09:27:57;;;;;;;11.02;6.30;;;7.80;81.00;;;;;;4968895;28;20050;-85
2022/11/19 09:30:23;;;;;;;12.23;6.53;;;7.80;81.30;;;;;;4963820;28;20501;-84
2022/11/19 09:32:49;;;;;;;13.70;7.40;;;7.90;81.10;;;;;;4971979;28;20150;-79
2022/11/19 09:35:14;;;;;;;10.05;6.18;;;8.00;81.40;;;;;;4976324;28;20030;-82
2022/11/19 09:37:40;;;;;;;3.78;3.25;;;8.00;81.10;;;;;;4976095;28;20039;-83
2022/11/19 09:40:08;;;;;;;5.10;2.92;;;8.10;80.80;;;;;;4963372;28;20019;-81
2022/11/19 09:42:49;;;;;;;3.25;2.58;;;8.20;81.10;;;;;;4964077;28;20027;-81
2022/11/19 09:45:50;;;;;;;4.38;2.53;;;8.30;80.80;;;;;;4970057;28;20089;-83
2022/11/19 09:48:21;;;;;;;4.30;2.60;;;8.40;80.50;;;;;;4975897;28;20049;-83
2022/11/19 09:50:54;;;;;;;4.47;2.55;;;8.50;80.40;;;;;;4956508;28;20034;-83
2022/11/19 09:53:22;;;;;;;5.13;3.58;;;8.50;80.00;;;;;;4974008;28;20396;-83
2022/11/19 09:55:51;;;;;;;5.70;2.95;;;8.50;79.90;;;;;;4972227;28;20031;-84
2022/11/19 09:58:23;;;;;;;5.55;3.58;;;8.50;80.00;;;;;;4970456;28;20030;-82
2022/11/19 10:00:49;;;;;;;3.58;2.60;;;8.50;80.30;;;;;;4969435;28;20059;-82
2022/11/19 10:03:18;;;;;;;4.90;2.30;;;8.60;80.50;;;;;;4966225;28;20058;-83
2022/11/19 10:05:58;;;;;;;4.93;2.60;;;8.60;80.10;;;;;;4970680;28;20027;-82
2022/11/19 10:08:58;;;;;;;3.60;2.87;;;8.70;80.00;;;;;;4970454;28;20116;-82
2022/11/19 10:11:25;;;;;;;7.25;2.55;;;8.70;80.30;;;;;;4967004;28;20274;-79
2022/11/19 10:14:33;;;;;;;8.55;2.65;;;8.80;80.10;;;;;;4974941;28;20027;-77
2022/11/19 10:17:42;;;;;;;10.15;3.13;;;8.90;80.20;;;;;;4963828;28;20137;-77
2022/11/19 10:20:21;;;;;;;7.53;4.15;;;8.90;80.00;;;;;;4976500;28;20066;-78
2022/11/19 10:22:58;;;;;;;18.17;6.50;;;9.00;80.00;;;;;;4979325;28;20054;-79
2022/11/19 10:25:36;;;;;;;8.38;4.60;;;9.00;79.80;;;;;;4971330;28;20063;-85
2022/11/19 10:28:30;;;;;;;16.20;4.65;;;9.10;79.80;;;;;;4961342;28;20018;-79
2022/11/19 10:31:15;;;;;;;5.32;3.50;;;9.20;79.40;;;;;;4974691;28;20070;-87
2022/11/19 10:33:53;;;;;;;6.80;3.20;;;9.20;79.50;;;;;;4976410;28;20062;-84
2022/11/19 10:36:41;;;;;;;5.32;3.20;;;9.30;79.20;;;;;;4968750;28;20027;-79
2022/11/19 10:39:21;;;;;;;7.53;3.22;;;9.40;79.00;;;;;;4972499;28;20110;-78
2022/11/19 10:41:53;;;;;;;5.85;2.60;;;9.50;78.70;;;;;;4973879;28;20062;-82
2022/11/19 10:44:39;;;;;;;4.47;3.03;;;9.50;79.10;;;;;;4974256;28;20042;-83
2022/11/19 10:47:09;;;;;;;5.10;2.22;;;9.50;79.00;;;;;;4958723;29;20057;-79
2022/11/19 10:49:39;;;;;;;6.75;2.15;;;9.50;79.30;;;;;;4960108;28;20023;-81
2022/11/19 10:52:21;;;;;;;2.22;1.75;;;9.60;79.40;;;;;;4965494;28;20487;-84
2022/11/19 10:54:49;;;;;;;5.97;2.67;;;9.70;79.70;;;;;;4977798;28;20027;-81
2022/11/19 10:57:17;;;;;;;2.95;2.35;;;9.90;80.10;;;;;;4969252;28;20038;-80
2022/11/19 10:59:43;;;;;;;4.28;2.17;;;10.10;79.70;;;;;;4975734;28;20027;-77
2022/11/19 11:02:24;;;;;;;2.53;2.33;;;10.10;80.10;;;;;;4957042;28;20392;-77
2022/11/19 11:05:09;;;;;;;3.35;2.58;;;10.10;79.30;;;;;;4965121;28;20035;-80
2022/11/19 11:07:45;;;;;;;4.82;2.53;;;10.10;79.20;;;;;;4978131;28;20670;-77
2022/11/19 11:10:33;;;;;;;5.60;2.75;;;10.20;79.20;;;;;;4977190;28;20411;-78
2022/11/19 11:16:20;;;;;;;5.32;2.65;;;10.30;79.50;;;;;;4968077;28;20133;-77
2022/11/19 11:18:47;;;;;;;6.82;2.85;;;10.30;79.40;;;;;;4960786;28;20039;-77
2022/11/19 11:21:32;;;;;;;5.95;2.72;;;10.30;79.60;;;;;;4964287;28;20015;-76
2022/11/19 11:24:01;;;;;;;7.30;3.40;;;10.30;79.10;;;;;;4977517;28;20026;-78
2022/11/19 11:26:28;;;;;;;5.43;2.95;;;10.20;79.40;;;;;;4976287;28;20115;-79
2022/11/19 11:29:02;;;;;;;6.50;3.35;;;10.20;79.60;;;;;;4978439;28;20026;-78
2022/11/19 11:31:35;;;;;;;6.88;3.10;;;10.30;79.50;;;;;;4974158;28;20054;-79
2022/11/19 11:34:02;;;;;;;7.40;3.38;;;10.40;79.40;;;;;;4957809;29;20094;-80
2022/11/19 11:36:30;;;;;;;7.30;2.40;;;10.50;79.60;;;;;;4965043;28;20114;-78
2022/11/19 11:38:58;;;;;;;4.28;2.50;;;10.50;78.80;;;;;;4973937;28;20086;-80
2022/11/19 11:41:39;;;;;;;3.22;1.98;;;10.60;78.40;;;;;;4974188;28;20490;-80
2022/11/19 11:44:26;;;;;;;4.65;1.92;;;10.70;77.50;;;;;;4976476;28;20026;-79
2022/11/19 11:47:03;;;;;;;4.20;1.73;;;10.80;77.40;;;;;;4972632;28;20024;-78
2022/11/19 11:49:42;;;;;;;3.38;1.95;;;10.90;76.70;;;;;;4968853;28;20023;-76
2022/11/19 11:52:10;;;;;;;5.82;2.47;;;10.90;76.30;;;;;;4963401;28;20037;-79
2022/11/19 11:54:57;;;;;;;7.65;2.15;;;11.00;76.00;;;;;;4971717;28;20031;-83
2022/11/19 11:57:25;;;;;;;1.88;1.30;;;10.90;76.10;;;;;;4957980;28;20083;-87
2022/11/19 11:59:50;;;;;;;3.00;1.15;;;10.90;75.60;;;;;;4956939;29;20494;-77
2022/11/19 12:02:22;;;;;;;4.90;1.73;;;10.90;75.20;;;;;;4965741;28;20046;-83
2022/11/19 12:04:51;;;;;;;6.32;1.60;;;11.00;75.50;;;;;;4978607;28;20036;-81
2022/11/19 12:07:16;;;;;;;1.50;1.02;;;11.00;74.40;;;;;;4981953;28;20549;-81
2022/11/19 12:09:58;;;;;;;5.18;0.95;;;11.10;73.50;;;;;;4981579;28;20554;-82
2022/11/19 12:12:37;;;;;;;5.22;1.13;;;11.20;72.60;;;;;;4973903;28;20023;-81
2022/11/19 12:15:35;;;;;;;6.13;2.20;;;11.20;71.60;;;;;;4977443;28;20030;-81
2022/11/19 12:18:33;;;;;;;5.85;1.05;;;11.20;71.10;;;;;;4982434;28;20038;-81
2022/11/19 12:21:01;;;;;;;1.73;0.90;;;11.20;71.50;;;;;;4967639;28;20126;-82
2022/11/19 12:23:49;;;;;;;2.25;0.70;;;11.30;70.70;;;;;;4974249;28;20105;-82
2022/11/19 12:26:26;;;;;;;2.13;0.90;;;11.30;69.90;;;;;;4970649;28;20073;-81
2022/11/19 12:29:26;;;;;;;1.23;0.82;;;11.30;69.80;;;;;;4972494;28;20103;-81
2022/11/19 12:32:11;;;;;;;;;;;11.40;69.80;;;;;;4974406;28;20047;-82
2022/11/19 12:35:09;;;;;;;1.33;1.10;;;11.40;69.50;;;;;;4978454;28;19914;-81
2022/11/19 12:37:52;;;;;;;4.72;1.50;;;11.50;69.30;;;;;;4969601;28;20089;-82
2022/11/19 12:40:24;;;;;;;2.47;1.20;;;11.60;69.60;;;;;;4975431;28;20034;-82
2022/11/19 12:43:21;;;;;;;3.13;0.93;;;11.60;69.30;;;;;;4976726;28;20851;-81
2022/11/19 12:46:05;;;;;;;2.72;1.20;;;11.60;69.30;;;;;;4969121;28;20126;-81
2022/11/19 12:48:44;;;;;;;2.20;1.27;;;11.60;68.80;;;;;;4967034;28;20055;-81
2022/11/19 12:51:38;;;;;;;3.13;1.13;;;11.60;69.00;;;;;;4965549;28;20419;-81
2022/11/19 12:54:34;;;;;;;4.50;1.55;;;11.60;68.80;;;;;;4971268;28;20570;-81
2022/11/19 12:57:27;;;;;;;2.08;0.80;;;11.70;68.90;;;;;;4976482;28;20045;-81
2022/11/19 13:00:11;;;;;;;1.08;0.80;;;11.70;69.10;;;;;;4967421;28;20038;-82
2022/11/19 13:02:41;;;;;;;1.05;0.88;;;11.80;69.40;;;;;;4970791;28;20376;-81
2022/11/19 13:05:51;;;;;;;4.57;1.02;;;11.80;69.10;;;;;;4951798;28;20015;-79
2022/11/19 13:08:38;;;;;;;1.27;0.93;;;11.80;68.80;;;;;;4963885;28;20031;-80
2022/11/19 13:11:20;;;;;;;3.17;0.80;;;11.80;69.30;;;;;;4968830;28;20038;-80
2022/11/19 13:14:12;;;;;;;5.80;1.27;;;11.80;69.10;;;;;;4961199;28;20031;-80
2022/11/19 13:16:40;;;;;;;4.97;1.30;;;11.80;69.10;;;;;;4961827;28;20047;-80
2022/11/19 13:19:32;;;;;;;2.28;1.40;;;11.80;69.40;;;;;;4963663;28;20095;-80
2022/11/19 13:22:20;;;;;;;3.50;1.10;;;11.80;69.60;;;;;;4959623;28;20038;-80
2022/11/19 13:24:53;;;;;;;5.43;1.48;;;11.80;69.20;;;;;;4975358;28;20035;-80
2022/11/19 13:27:22;;;;;;;2.65;1.02;;;11.90;69.30;;;;;;4965341;28;20399;-80
2022/11/19 13:29:57;;;;;;;1.77;1.13;;;11.90;68.80;;;;;;4972636;28;20102;-80
2022/11/19 13:32:50;;;;;;;8.27;1.38;;;11.90;68.90;;;;;;4973054;28;20054;-81
2022/11/19 13:35:24;;;;;;;2.55;1.30;;;11.90;68.70;;;;;;4972308;28;20023;-80
2022/11/19 13:37:56;;;;;;;3.50;0.88;;;11.90;68.40;;;;;;4966695;28;20411;-79
2022/11/19 13:41:15;;;;;;;6.10;1.10;;;11.90;68.10;;;;;;4971340;28;20035;-80
2022/11/19 13:46:35;;;;;;;2.33;1.17;;;11.90;69.00;;;;;;4969155;28;20074;-80
2022/11/19 13:49:14;;;;;;;5.45;1.98;;;12.00;69.30;;;;;;4977752;28;20031;-80
2022/11/19 13:51:56;;;;;;;2.17;1.27;;;12.00;69.10;;;;;;4967253;28;20030;-80
2022/11/19 13:54:42;;;;;;;3.40;1.00;;;12.00;68.90;;;;;;4959217;29;20027;-80
2022/11/19 13:57:26;;;;;;;2.10;0.93;;;12.20;69.00;;;;;;4972152;28;20049;-80
2022/11/19 14:00:17;;;;;;;4.72;0.88;;;12.20;67.50;;;;;;4971584;28;20417;-82
2022/11/19 14:03:07;;;;;;;3.20;0.70;;;12.20;66.50;;;;;;4969437;28;20022;-81
2022/11/19 14:05:42;;;;;;;1.52;0.85;;;12.20;65.90;;;;;;4964803;28;20042;-83
2022/11/19 14:08:23;;;;;;;1.50;0.88;;;12.30;65.20;;;;;;4978379;28;20023;-82
2022/11/19 14:10:58;;;;;;;3.95;1.13;;;12.20;65.50;;;;;;4966384;28;20086;-83
2022/11/19 14:13:36;;;;;;;4.05;0.90;;;12.10;66.20;;;;;;4962255;28;20290;-83
2022/11/19 14:27:32;;;;;;;2.78;1.38;;;11.50;69.20;;;;;;4970622;28;20042;-82
2022/11/19 14:30:10;;;;;;;2.15;1.30;;;11.30;69.50;;;;;;4978408;28;20031;-81
2022/11/19 14:32:49;;;;;;;6.80;1.50;;;11.30;69.90;;;;;;4978474;28;20407;-83
2022/11/19 14:35:19;;;;;;;2.67;1.88;;;11.20;70.20;;;;;;4976375;28;20031;-82
2022/11/19 14:37:54;;;;;;;4.07;2.03;;;11.20;70.40;;;;;;4978004;28;20041;-82
2022/11/19 14:40:27;;;;;;;8.25;2.45;;;11.20;70.80;;;;;;4970149;28;20045;-82
2022/11/19 14:46:04;;;;;;;2.88;1.83;;;11.10;71.30;;;;;;4969933;28;20513;-82
2022/11/19 14:48:38;;;;;;;4.80;2.05;;;11.10;71.40;;;;;;4968456;28;20126;-82
2022/11/19 14:51:14;;;;;;;5.85;2.70;;;11.20;71.20;;;;;;4970787;28;20130;-82
2022/11/19 14:53:50;;;;;;;8.80;2.20;;;11.20;70.60;;;;;;4975994;28;20081;-82
2022/11/19 14:56:20;;;;;;;5.75;4.03;;;11.30;70.30;;;;;;4979575;28;20042;-82
2022/11/19 14:59:13;;;;;;;9.20;5.53;;;11.40;70.20;;;;;;4956212;28;20062;-81
2022/11/19 15:02:02;;;;;;;6.20;3.67;;;11.40;70.00;;;;;;4963360;28;20365;-79
2022/11/19 15:04:36;;;;;;;4.15;2.40;;;11.50;69.70;;;;;;4972569;28;20030;-79
2022/11/19 15:07:08;;;;;;;3.05;1.50;;;11.50;69.70;;;;;;4969268;28;20019;-79
2022/11/19 15:10:13;;;;;;;4.28;2.60;;;11.40;69.60;;;;;;4966393;28;20058;-79
2022/11/19 15:12:41;;;;;;;4.30;2.22;;;11.40;69.40;;;;;;4951037;28;20519;-84
2022/11/19 15:15:19;;;;;;;3.55;2.10;;;11.30;69.50;;;;;;4957307;28;20039;-78
2022/11/19 15:17:59;;;;;;;3.83;2.30;;;11.20;69.80;;;;;;4969253;28;20031;-83
2022/11/19 15:20:58;;;;;;;6.22;2.45;;;11.20;70.10;;;;;;4966816;28;20062;-83
2022/11/19 15:23:42;;;;;;;11.23;4.00;;;11.10;70.20;;;;;;4987615;28;20042;-83
2022/11/19 15:26:30;;;;;;;6.82;2.97;;;11.10;70.50;;;;;;4974672;28;20043;-83
2022/11/19 15:29:07;;;;;;;5.32;2.03;;;11.00;70.80;;;;;;4971843;28;20029;-82
2022/11/19 15:31:39;;;;;;;3.35;2.00;;;11.00;71.00;;;;;;4976426;28;20054;-83
2022/11/19 15:34:38;;;;;;;5.45;1.75;;;10.90;71.20;;;;;;4977421;28;20054;-83
2022/11/19 15:37:11;;;;;;;6.90;2.28;;;10.80;71.10;;;;;;4971194;28;20088;-85
2022/11/19 15:39:42;;;;;;;4.65;1.98;;;10.80;71.50;;;;;;4966978;28;20138;-85
2022/11/19 15:42:15;;;;;;;8.15;2.83;;;10.80;71.70;;;;;;4977127;28;20066;-83
2022/11/19 15:45:01;;;;;;;7.38;2.70;;;10.80;71.70;;;;;;4961695;28;20035;-84
2022/11/19 15:47:35;;;;;;;6.57;2.42;;;10.80;71.70;;;;;;4986412;28;20019;-84
2022/11/19 15:50:02;;;;;;;9.10;2.72;;;10.80;72.00;;;;;;4971307;28;20027;-84
2022/11/19 15:52:30;;;;;;;5.43;2.75;;;10.80;72.40;;;;;;4965687;28;20045;-84
2022/11/19 15:55:29;;;;;;;5.53;2.38;;;10.70;72.80;;;;;;4969498;28;20035;-84
2022/11/19 15:58:12;;;;;;;4.68;2.05;;;10.70;73.30;;;;;;4939318;28;20105;-82
2022/11/19 16:00:49;;;;;;;3.33;1.88;;;10.60;73.60;;;;;;4968656;28;20045;-84
2022/11/19 16:03:16;;;;;;;3.90;2.10;;;10.60;73.80;;;;;;4970094;28;20034;-84
2022/11/19 16:05:59;;;;;;;3.92;2.38;;;10.50;74.00;;;;;;4963311;28;20530;-83
2022/11/19 16:08:26;;;;;;;5.63;2.63;;;10.40;74.30;;;;;;4967443;28;20058;-83
2022/11/19 16:17:31;;;;;;;3.72;2.72;;;10.30;74.70;;;;;;4961384;28;20033;-84
2022/11/19 16:19:17;;;;;;;8.73;4.70;;;10.20;75.20;;;;;;4964618;28;20085;-84
2022/11/19 16:21:47;;;;;;;7.00;4.95;;;10.20;75.40;;;;;;4963972;28;20042;-83
2022/11/19 16:27:03;;;;;;;15.68;7.40;;;10.20;75.40;;;;;;4962755;28;20042;-83
2022/11/19 16:29:34;;;;;;;13.38;6.72;;;10.10;75.70;;;;;;4974893;28;20019;-84
2022/11/19 16:32:00;;;;;;;14.68;8.05;;;10.10;75.50;;;;;;4973137;28;20645;-83
2022/11/19 16:34:30;;;;;;;16.27;7.82;;;10.00;75.40;;;;;;4983399;28;20031;-84
2022/11/19 16:36:56;;;;;;;17.23;8.60;;;10.00;75.50;;;;;;4979000;28;21992;-83
2022/11/19 16:39:24;;;;;;;13.98;7.20;;;10.00;75.60;;;;;;4967521;28;20082;-83
2022/11/19 16:44:40;;;;;;;15.43;6.93;;;9.90;75.90;;;;;;4968298;28;20064;-83
2022/11/19 16:50:04;;;;;;;14.68;6.38;;;9.80;76.10;;;;;;4963588;28;20051;-82
2022/11/19 16:52:35;;;;;;;;;;;9.80;75.90;;;;;;4954686;28;20027;-82
2022/11/19 16:55:22;;;;;;;11.55;6.20;;;9.80;75.90;;;;;;4972664;28;19909;-83
2022/11/19 16:57:50;;;;;;;12.13;6.20;;;9.80;75.70;;;;;;4971490;28;20486;-83
2022/11/19 17:00:19;;;;;;;13.95;7.65;;;9.70;75.50;;;;;;4966520;28;20540;-83
2022/11/19 17:02:46;;;;;;;16.38;8.75;;;9.70;76.10;;;;;;4968376;28;20031;-81
2022/11/19 17:05:14;;;;;;;9.77;6.32;;;9.60;76.30;;;;;;4970971;28;20554;-81
2022/11/19 17:07:44;;;;;;;14.20;8.18;;;9.60;76.30;;;;;;4963579;28;20027;-81
2022/11/19 17:10:34;;;;;;;;;;;9.60;76.30;;;;;;4965006;28;20630;-81
2022/11/19 17:13:02;;;;;;;24.27;12.53;;;9.60;76.30;;;;;;4976347;28;19910;-81
2022/11/19 17:15:35;;;;;;;18.85;11.13;;;9.60;76.20;;;;;;4962789;28;20733;-82
2022/11/19 17:18:19;;;;;;;17.50;11.32;;;9.50;76.00;;;;;;4979447;28;20031;-77
2022/11/19 17:20:44;;;;;;;18.15;11.25;;;9.50;76.20;;;;;;4997422;28;20041;-75
2022/11/19 17:23:15;;;;;;;25.85;13.43;;;9.50;76.00;;;;;;4980067;28;20032;-77
2022/11/19 17:26:05;;;;;;;20.98;12.00;;;9.40;76.20;;;;;;4961035;28;20019;-81
2022/11/19 17:28:50;;;;;;;17.58;10.95;;;9.30;76.20;;;;;;4962872;28;20093;-77
2022/11/19 17:31:25;;;;;;;20.38;11.65;;;9.30;76.30;;;;;;4961917;28;20066;-80
2022/11/19 17:33:52;;;;;;;17.20;10.75;;;9.20;76.50;;;;;;4972957;28;20046;-80
2022/11/19 17:36:18;;;;;;;16.65;10.82;;;9.20;76.60;;;;;;4975382;28;20117;-78
2022/11/19 17:38:46;;;;;;;17.73;10.77;;;9.20;76.60;;;;;;4971736;28;20067;-76
2022/11/19 17:41:15;;;;;;;16.45;10.35;;;9.20;76.70;;;;;;4973526;28;20118;-78
2022/11/19 17:46:28;;;;;;;16.55;9.95;;;9.20;76.60;;;;;;4977020;28;20410;-78
2022/11/19 17:48:54;;;;;;;14.35;10.80;;;9.20;76.70;;;;;;4964934;28;20035;-81
2022/11/19 17:51:21;;;;;;;16.38;9.73;;;9.20;76.90;;;;;;4970265;28;20038;-83
2022/11/19 17:53:50;;;;;;;16.13;10.13;;;9.20;76.90;;;;;;4973406;28;20034;-81
2022/11/19 17:56:23;;;;;;;18.73;9.43;;;9.20;76.90;;;;;;4975151;28;20023;-80
2022/11/19 17:58:49;;;;;;;21.45;9.55;;;9.10;76.90;;;;;;4970862;28;20035;-79
2022/11/19 18:01:15;;;;;;;19.05;9.00;;;9.20;76.70;;;;;;4969060;28;20027;-77
2022/11/19 18:03:41;;;;;;;15.70;8.88;;;9.20;76.80;;;;;;4954639;28;20110;-78
2022/11/19 18:06:09;;;;;;;16.85;9.82;;;9.20;76.70;;;;;;4967530;28;20042;-78
2022/11/19 18:08:35;;;;;;;14.80;10.02;;;9.20;76.90;;;;;;4968903;28;20065;-78
2022/11/19 18:11:02;;;;;;;20.45;11.82;;;9.20;76.90;;;;;;4981576;28;20035;-76
2022/11/19 18:13:29;;;;;;;18.85;12.20;;;9.20;76.90;;;;;;4982663;28;20037;-76
2022/11/19 18:15:56;;;;;;;19.88;11.68;;;9.20;76.70;;;;;;4964022;28;20046;-75
2022/11/19 18:18:22;;;;;;;21.80;13.75;;;9.20;76.70;;;;;;4960949;28;20395;-76
2022/11/19 18:20:49;;;;;;;21.85;14.82;;;9.20;76.70;;;;;;4978067;28;20035;-77
2022/11/19 18:23:15;;;;;;;22.95;15.23;;;9.20;76.70;;;;;;4966466;28;20106;-76
2022/11/19 18:25:41;;;;;;;20.35;13.73;;;9.10;76.90;;;;;;4975895;28;20393;-76
2022/11/19 18:28:07;;;;;;;24.77;15.43;;;9.10;77.00;;;;;;4978688;28;20034;-77
2022/11/19 18:30:33;;;;;;;27.98;17.35;;;9.10;77.40;;;;;;4962550;28;20049;-78
2022/11/19 18:32:59;;;;;;;35.60;19.42;;;9.10;77.30;;;;;;4974998;28;20039;-77
2022/11/19 18:35:26;;;;;;;46.70;21.25;;;9.00;77.40;;;;;;4965945;28;20029;-73
2022/11/19 18:37:52;;;;;;;31.05;18.50;;;9.00;77.40;;;;;;4973999;28;20026;-76
2022/11/19 18:40:19;;;;;;;42.85;20.52;;;9.00;77.40;;;;;;4976609;28;20102;-76
2022/11/19 18:45:29;;;;;;;36.13;21.20;;;9.00;77.40;;;;;;4985677;28;20155;-75
2022/11/19 18:47:55;;;;;;;33.58;18.58;;;9.00;77.40;;;;;;4988212;28;20113;-77
2022/11/19 18:50:21;;;;;;;27.77;16.10;;;9.00;77.40;;;;;;4985327;28;20173;-76
2022/11/19 18:52:49;;;;;;;31.02;19.52;;;9.00;77.30;;;;;;4987549;28;20940;-75
2022/11/19 18:55:15;;;;;;;29.23;17.08;;;8.90;77.30;;;;;;4984377;28;20211;-78
2022/11/19 18:57:41;;;;;;;24.65;14.95;;;8.90;77.40;;;;;;4987519;28;20502;-79
2022/11/19 19:00:08;;;;;;;23.27;14.25;;;8.80;77.50;;;;;;4983466;28;20026;-78
2022/11/19 19:02:35;;;;;;;23.13;14.27;;;8.90;77.60;;;;;;4978641;28;20034;-80
2022/11/19 19:05:01;;;;;;;20.50;13.45;;;8.80;77.60;;;;;;4973292;28;20027;-81
2022/11/19 19:07:28;;;;;;;20.65;12.48;;;8.80;77.70;;;;;;4977664;28;20057;-81
2022/11/19 19:09:54;;;;;;;25.08;14.52;;;8.80;77.70;;;;;;4959537;28;20182;-78
2022/11/19 19:12:20;;;;;;;24.08;16.15;;;8.80;77.80;;;;;;4975365;28;20082;-80
2022/11/19 19:14:50;;;;;;;28.83;18.08;;;8.80;77.70;;;;;;4960607;28;20028;-79
2022/11/19 19:17:16;;;;;;;32.33;19.48;;;8.80;77.70;;;;;;4964875;28;20027;-78
2022/11/19 19:19:42;;;;;;;35.42;19.92;;;8.80;77.60;;;;;;4977173;28;20045;-78
2022/11/19 19:22:08;;;;;;;26.52;18.42;;;8.80;77.40;;;;;;4974187;28;20071;-76
2022/11/19 19:24:34;;;;;;;31.23;20.23;;;8.80;77.40;;;;;;4953125;28;20070;-76
2022/11/19 19:27:00;;;;;;;35.22;19.55;;;8.70;77.40;;;;;;4959113;28;20067;-84
2022/11/19 19:29:26;;;;;;;37.50;20.60;;;8.70;77.50;;;;;;4952761;28;20066;-76
2022/11/19 19:31:52;;;;;;;31.45;19.23;;;8.70;77.60;;;;;;4958293;28;20471;-76
2022/11/19 19:34:18;;;;;;;29.10;18.08;;;8.60;77.70;;;;;;4962487;28;20027;-77
2022/11/19 19:36:45;;;;;;;24.98;15.80;;;8.60;77.70;;;;;;4968827;28;20054;-76